sensor_id;sensor_type;location;lat;lon;timestamp;P1;durP1;ratioP1;P2;durP2;ratioP2
58017;SDS011;43810;50.860;19.226;2023-02-01T00:02:00;13.98;;;7.05;;
58017;SDS011;43810;50.860;19.226;2023-02-01T00:04:27;17.70;;;8.25;;
58017;SDS011;43810;50.860;19.226;2023-02-01T00:06:52;15.77;;;7.32;;
58017;SDS011;43810;50.860;19.226;2023-02-01T00:09:18;14.75;;;7.15;;
58017;SDS011;43810;50.860;19.226;2023-02-01T00:11:44;14.13;;;7.20;;
58017;SDS011;43810;50.860;19.226;2023-02-01T00:14:11;13.30;;;7.60;;
58017;SDS011;43810;50.860;19.226;2023-02-01T00:16:37;10.35;;;6.15;;
58017;SDS011;43810;50.860;19.226;2023-02-01T00:19:07;9.93;;;6.47;;
58017;SDS011;43810;50.860;19.226;2023-02-01T00:21:36;11.15;;;6.53;;
58017;SDS011;43810;50.860;19.226;2023-02-01T00:24:02;14.10;;;6.40;;
58017;SDS011;43810;50.860;19.226;2023-02-01T00:26:35;10.98;;;6.43;;
58017;SDS011;43810;50.860;19.226;2023-02-01T00:29:12;12.27;;;5.43;;
58017;SDS011;43810;50.860;19.226;2023-02-01T00:31:42;10.05;;;5.25;;
58017;SDS011;43810;50.860;19.226;2023-02-01T00:34:11;10.45;;;5.00;;
58017;SDS011;43810;50.860;19.226;2023-02-01T00:36:37;5.57;;;3.95;;
58017;SDS011;43810;50.860;19.226;2023-02-01T00:39:04;7.80;;;4.95;;
58017;SDS011;43810;50.860;19.226;2023-02-01T00:41:29;6.25;;;4.00;;
58017;SDS011;43810;50.860;19.226;2023-02-01T00:43:55;8.27;;;3.78;;
58017;SDS011;43810;50.860;19.226;2023-02-01T00:46:21;7.07;;;4.15;;
58017;SDS011;43810;50.860;19.226;2023-02-01T00:48:48;7.60;;;3.75;;
58017;SDS011;43810;50.860;19.226;2023-02-01T00:51:15;8.18;;;3.28;;
58017;SDS011;43810;50.860;19.226;2023-02-01T00:53:43;6.97;;;4.10;;
58017;SDS011;43810;50.860;19.226;2023-02-01T00:56:10;11.02;;;4.75;;
58017;SDS011;43810;50.860;19.226;2023-02-01T00:58:37;7.28;;;3.78;;
58017;SDS011;43810;50.860;19.226;2023-02-01T01:01:04;8.50;;;4.65;;
58017;SDS011;43810;50.860;19.226;2023-02-01T01:03:31;9.35;;;3.95;;
58017;SDS011;43810;50.860;19.226;2023-02-01T01:06:04;11.38;;;5.53;;
58017;SDS011;43810;50.860;19.226;2023-02-01T01:08:32;9.90;;;5.05;;
58017;SDS011;43810;50.860;19.226;2023-02-01T01:10:58;9.45;;;4.57;;
58017;SDS011;43810;50.860;19.226;2023-02-01T01:13:30;12.80;;;4.85;;
58017;SDS011;43810;50.860;19.226;2023-02-01T01:15:56;8.70;;;5.55;;
58017;SDS011;43810;50.860;19.226;2023-02-01T01:18:22;19.58;;;5.18;;
58017;SDS011;43810;50.860;19.226;2023-02-01T01:20:48;12.18;;;5.22;;
58017;SDS011;43810;50.860;19.226;2023-02-01T01:23:14;12.18;;;4.50;;
58017;SDS011;43810;50.860;19.226;2023-02-01T01:25:40;16.33;;;6.15;;
58017;SDS011;43810;50.860;19.226;2023-02-01T01:28:06;13.65;;;4.60;;
58017;SDS011;43810;50.860;19.226;2023-02-01T01:30:35;16.60;;;3.85;;
58017;SDS011;43810;50.860;19.226;2023-02-01T01:33:01;11.75;;;3.35;;
58017;SDS011;43810;50.860;19.226;2023-02-01T01:35:28;10.48;;;2.50;;
58017;SDS011;43810;50.860;19.226;2023-02-01T01:37:56;10.38;;;3.20;;
58017;SDS011;43810;50.860;19.226;2023-02-01T01:40:23;6.65;;;2.33;;
58017;SDS011;43810;50.860;19.226;2023-02-01T01:42:49;18.45;;;2.17;;
58017;SDS011;43810;50.860;19.226;2023-02-01T01:47:44;13.10;;;2.28;;
58017;SDS011;43810;50.860;19.226;2023-02-01T01:50:15;10.88;;;2.40;;
58017;SDS011;43810;50.860;19.226;2023-02-01T01:52:46;10.57;;;2.15;;
58017;SDS011;43810;50.860;19.226;2023-02-01T01:55:16;11.82;;;3.05;;
58017;SDS011;43810;50.860;19.226;2023-02-01T01:57:47;8.02;;;1.88;;
58017;SDS011;43810;50.860;19.226;2023-02-01T02:00:19;8.60;;;2.35;;
58017;SDS011;43810;50.860;19.226;2023-02-01T02:02:47;8.43;;;2.08;;
58017;SDS011;43810;50.860;19.226;2023-02-01T02:05:15;10.20;;;2.28;;
58017;SDS011;43810;50.860;19.226;2023-02-01T02:07:43;10.50;;;2.00;;
58017;SDS011;43810;50.860;19.226;2023-02-01T02:10:12;8.48;;;3.10;;
58017;SDS011;43810;50.860;19.226;2023-02-01T02:12:40;10.57;;;2.55;;
58017;SDS011;43810;50.860;19.226;2023-02-01T02:15:07;15.38;;;2.92;;
58017;SDS011;43810;50.860;19.226;2023-02-01T02:28:05;9.25;;;2.10;;
58017;SDS011;43810;50.860;19.226;2023-02-01T02:33:58;9.73;;;2.78;;
58017;SDS011;43810;50.860;19.226;2023-02-01T02:42:02;12.10;;;2.10;;
58017;SDS011;43810;50.860;19.226;2023-02-01T02:45:14;4.38;;;2.40;;
58017;SDS011;43810;50.860;19.226;2023-02-01T02:50:51;9.85;;;2.33;;
58017;SDS011;43810;50.860;19.226;2023-02-01T02:54:11;5.25;;;2.38;;
58017;SDS011;43810;50.860;19.226;2023-02-01T02:56:48;10.35;;;2.58;;
58017;SDS011;43810;50.860;19.226;2023-02-01T02:59:34;12.88;;;3.05;;
58017;SDS011;43810;50.860;19.226;2023-02-01T03:02:20;8.25;;;1.98;;
58017;SDS011;43810;50.860;19.226;2023-02-01T03:05:05;3.67;;;1.48;;
58017;SDS011;43810;50.860;19.226;2023-02-01T03:13:22;6.43;;;2.03;;
58017;SDS011;43810;50.860;19.226;2023-02-01T03:16:20;6.50;;;1.85;;
58017;SDS011;43810;50.860;19.226;2023-02-01T03:18:58;6.78;;;1.75;;
58017;SDS011;43810;50.860;19.226;2023-02-01T03:21:31;7.68;;;2.22;;
58017;SDS011;43810;50.860;19.226;2023-02-01T03:24:14;8.82;;;1.90;;
58017;SDS011;43810;50.860;19.226;2023-02-01T03:26:51;10.98;;;1.95;;
58017;SDS011;43810;50.860;19.226;2023-02-01T03:29:25;10.85;;;1.92;;
58017;SDS011;43810;50.860;19.226;2023-02-01T03:31:55;9.57;;;2.20;;
58017;SDS011;43810;50.860;19.226;2023-02-01T03:34:21;6.60;;;1.80;;
58017;SDS011;43810;50.860;19.226;2023-02-01T03:36:51;13.40;;;2.67;;
58017;SDS011;43810;50.860;19.226;2023-02-01T03:42:15;8.77;;;1.95;;
58017;SDS011;43810;50.860;19.226;2023-02-01T03:44:57;10.30;;;2.88;;
58017;SDS011;43810;50.860;19.226;2023-02-01T03:47:27;8.40;;;2.25;;
58017;SDS011;43810;50.860;19.226;2023-02-01T03:49:59;9.18;;;1.98;;
58017;SDS011;43810;50.860;19.226;2023-02-01T03:53:14;6.50;;;1.80;;
58017;SDS011;43810;50.860;19.226;2023-02-01T03:55:32;3.00;;;1.42;;
58017;SDS011;43810;50.860;19.226;2023-02-01T03:58:02;11.32;;;2.42;;
58017;SDS011;43810;50.860;19.226;2023-02-01T04:00:30;4.57;;;2.20;;
58017;SDS011;43810;50.860;19.226;2023-02-01T04:02:56;10.30;;;2.40;;
58017;SDS011;43810;50.860;19.226;2023-02-01T04:05:22;5.45;;;1.88;;
58017;SDS011;43810;50.860;19.226;2023-02-01T04:07:48;5.82;;;1.90;;
58017;SDS011;43810;50.860;19.226;2023-02-01T04:10:14;8.38;;;1.90;;
58017;SDS011;43810;50.860;19.226;2023-02-01T04:12:40;4.22;;;1.88;;
58017;SDS011;43810;50.860;19.226;2023-02-01T04:15:06;2.72;;;1.33;;
58017;SDS011;43810;50.860;19.226;2023-02-01T04:17:33;7.70;;;1.83;;
58017;SDS011;43810;50.860;19.226;2023-02-01T04:19:59;7.60;;;2.35;;
58017;SDS011;43810;50.860;19.226;2023-02-01T04:22:24;4.78;;;2.03;;
58017;SDS011;43810;50.860;19.226;2023-02-01T04:24:50;3.65;;;2.05;;
58017;SDS011;43810;50.860;19.226;2023-02-01T04:27:16;10.25;;;2.42;;
58017;SDS011;43810;50.860;19.226;2023-02-01T04:29:42;8.93;;;2.47;;
58017;SDS011;43810;50.860;19.226;2023-02-01T04:32:07;4.72;;;1.75;;
58017;SDS011;43810;50.860;19.226;2023-02-01T04:34:34;6.30;;;2.00;;
58017;SDS011;43810;50.860;19.226;2023-02-01T04:36:59;11.30;;;2.13;;
58017;SDS011;43810;50.860;19.226;2023-02-01T04:39:25;14.95;;;2.33;;
58017;SDS011;43810;50.860;19.226;2023-02-01T04:41:51;10.88;;;2.63;;
58017;SDS011;43810;50.860;19.226;2023-02-01T04:44:17;10.65;;;2.80;;
58017;SDS011;43810;50.860;19.226;2023-02-01T04:46:44;10.52;;;2.25;;
58017;SDS011;43810;50.860;19.226;2023-02-01T04:49:12;10.57;;;2.17;;
58017;SDS011;43810;50.860;19.226;2023-02-01T04:51:39;12.32;;;2.28;;
58017;SDS011;43810;50.860;19.226;2023-02-01T04:54:06;7.88;;;2.35;;
58017;SDS011;43810;50.860;19.226;2023-02-01T04:56:32;6.80;;;2.05;;
58017;SDS011;43810;50.860;19.226;2023-02-01T04:59:00;8.95;;;2.72;;
58017;SDS011;43810;50.860;19.226;2023-02-01T05:01:27;5.93;;;2.20;;
58017;SDS011;43810;50.860;19.226;2023-02-01T05:03:54;11.85;;;2.55;;
58017;SDS011;43810;50.860;19.226;2023-02-01T05:06:20;5.80;;;2.55;;
58017;SDS011;43810;50.860;19.226;2023-02-01T05:08:46;10.32;;;3.10;;
58017;SDS011;43810;50.860;19.226;2023-02-01T05:11:12;10.10;;;2.70;;
58017;SDS011;43810;50.860;19.226;2023-02-01T05:13:57;12.68;;;2.55;;
58017;SDS011;43810;50.860;19.226;2023-02-01T05:16:24;11.88;;;2.35;;
58017;SDS011;43810;50.860;19.226;2023-02-01T05:18:50;8.20;;;2.35;;
58017;SDS011;43810;50.860;19.226;2023-02-01T05:21:17;11.38;;;3.35;;
58017;SDS011;43810;50.860;19.226;2023-02-01T05:23:43;9.93;;;2.58;;
58017;SDS011;43810;50.860;19.226;2023-02-01T05:26:27;7.90;;;2.05;;
58017;SDS011;43810;50.860;19.226;2023-02-01T05:28:53;7.90;;;2.15;;
58017;SDS011;43810;50.860;19.226;2023-02-01T05:31:19;9.10;;;3.08;;
58017;SDS011;43810;50.860;19.226;2023-02-01T05:33:46;12.68;;;3.10;;
58017;SDS011;43810;50.860;19.226;2023-02-01T05:36:13;11.43;;;2.67;;
58017;SDS011;43810;50.860;19.226;2023-02-01T05:38:39;12.13;;;3.45;;
58017;SDS011;43810;50.860;19.226;2023-02-01T05:41:04;4.35;;;2.55;;
58017;SDS011;43810;50.860;19.226;2023-02-01T05:43:30;12.23;;;2.60;;
58017;SDS011;43810;50.860;19.226;2023-02-01T05:45:56;10.77;;;3.13;;
58017;SDS011;43810;50.860;19.226;2023-02-01T05:48:22;13.20;;;3.00;;
58017;SDS011;43810;50.860;19.226;2023-02-01T05:50:51;11.10;;;2.97;;
58017;SDS011;43810;50.860;19.226;2023-02-01T05:53:19;11.23;;;2.83;;
58017;SDS011;43810;50.860;19.226;2023-02-01T05:55:45;10.65;;;3.50;;
58017;SDS011;43810;50.860;19.226;2023-02-01T05:58:11;8.43;;;3.17;;
58017;SDS011;43810;50.860;19.226;2023-02-01T06:00:37;16.08;;;3.83;;
58017;SDS011;43810;50.860;19.226;2023-02-01T06:03:04;22.67;;;4.25;;
58017;SDS011;43810;50.860;19.226;2023-02-01T06:05:30;7.78;;;3.33;;
58017;SDS011;43810;50.860;19.226;2023-02-01T06:07:56;9.50;;;3.15;;
58017;SDS011;43810;50.860;19.226;2023-02-01T06:10:22;6.40;;;2.55;;
58017;SDS011;43810;50.860;19.226;2023-02-01T06:12:48;11.75;;;3.47;;
58017;SDS011;43810;50.860;19.226;2023-02-01T06:15:14;13.20;;;2.95;;
58017;SDS011;43810;50.860;19.226;2023-02-01T06:17:44;13.45;;;3.08;;
58017;SDS011;43810;50.860;19.226;2023-02-01T06:20:11;10.68;;;2.78;;
58017;SDS011;43810;50.860;19.226;2023-02-01T06:22:39;10.50;;;2.58;;
58017;SDS011;43810;50.860;19.226;2023-02-01T06:25:06;8.18;;;2.40;;
58017;SDS011;43810;50.860;19.226;2023-02-01T06:27:34;7.20;;;2.40;;
58017;SDS011;43810;50.860;19.226;2023-02-01T06:30:01;11.88;;;3.25;;
58017;SDS011;43810;50.860;19.226;2023-02-01T06:32:27;10.57;;;3.13;;
58017;SDS011;43810;50.860;19.226;2023-02-01T06:34:53;11.07;;;3.03;;
58017;SDS011;43810;50.860;19.226;2023-02-01T06:37:20;10.80;;;2.88;;
58017;SDS011;43810;50.860;19.226;2023-02-01T06:39:47;14.18;;;2.95;;
58017;SDS011;43810;50.860;19.226;2023-02-01T06:42:13;11.25;;;3.65;;
58017;SDS011;43810;50.860;19.226;2023-02-01T06:44:39;5.93;;;2.70;;
58017;SDS011;43810;50.860;19.226;2023-02-01T06:47:06;11.98;;;5.70;;
58017;SDS011;43810;50.860;19.226;2023-02-01T06:49:32;9.80;;;2.80;;
58017;SDS011;43810;50.860;19.226;2023-02-01T06:51:58;7.45;;;2.35;;
58017;SDS011;43810;50.860;19.226;2023-02-01T06:54:27;19.60;;;3.22;;
58017;SDS011;43810;50.860;19.226;2023-02-01T06:56:53;14.48;;;2.88;;
58017;SDS011;43810;50.860;19.226;2023-02-01T06:59:20;8.77;;;2.60;;
58017;SDS011;43810;50.860;19.226;2023-02-01T07:01:46;8.05;;;3.05;;
58017;SDS011;43810;50.860;19.226;2023-02-01T07:04:12;11.85;;;2.90;;
58017;SDS011;43810;50.860;19.226;2023-02-01T07:06:39;7.13;;;3.58;;
58017;SDS011;43810;50.860;19.226;2023-02-01T07:09:05;10.45;;;3.08;;
58017;SDS011;43810;50.860;19.226;2023-02-01T07:11:31;15.50;;;3.17;;
58017;SDS011;43810;50.860;19.226;2023-02-01T07:13:57;6.72;;;2.58;;
58017;SDS011;43810;50.860;19.226;2023-02-01T07:16:23;12.48;;;2.70;;
58017;SDS011;43810;50.860;19.226;2023-02-01T07:18:50;13.48;;;2.75;;
58017;SDS011;43810;50.860;19.226;2023-02-01T07:21:17;9.90;;;3.00;;
58017;SDS011;43810;50.860;19.226;2023-02-01T07:23:43;7.55;;;2.28;;
58017;SDS011;43810;50.860;19.226;2023-02-01T07:26:10;14.10;;;3.47;;
58017;SDS011;43810;50.860;19.226;2023-02-01T07:28:40;10.52;;;3.17;;
58017;SDS011;43810;50.860;19.226;2023-02-01T07:31:10;11.35;;;2.72;;
58017;SDS011;43810;50.860;19.226;2023-02-01T07:33:40;10.00;;;2.53;;
58017;SDS011;43810;50.860;19.226;2023-02-01T07:36:08;11.40;;;2.90;;
58017;SDS011;43810;50.860;19.226;2023-02-01T07:38:37;12.40;;;3.15;;
58017;SDS011;43810;50.860;19.226;2023-02-01T07:41:03;9.27;;;2.42;;
58017;SDS011;43810;50.860;19.226;2023-02-01T07:43:31;9.80;;;2.95;;
58017;SDS011;43810;50.860;19.226;2023-02-01T07:45:58;8.80;;;2.90;;
58017;SDS011;43810;50.860;19.226;2023-02-01T07:48:24;7.97;;;2.55;;
58017;SDS011;43810;50.860;19.226;2023-02-01T07:51:00;8.73;;;2.75;;
58017;SDS011;43810;50.860;19.226;2023-02-01T07:53:29;14.68;;;2.58;;
58017;SDS011;43810;50.860;19.226;2023-02-01T07:55:56;7.43;;;2.65;;
58017;SDS011;43810;50.860;19.226;2023-02-01T07:58:23;8.45;;;2.60;;
58017;SDS011;43810;50.860;19.226;2023-02-01T08:00:49;16.40;;;4.85;;
58017;SDS011;43810;50.860;19.226;2023-02-01T08:03:34;8.52;;;3.08;;
58017;SDS011;43810;50.860;19.226;2023-02-01T08:06:00;9.35;;;3.58;;
58017;SDS011;43810;50.860;19.226;2023-02-01T08:08:26;7.22;;;2.25;;
58017;SDS011;43810;50.860;19.226;2023-02-01T08:10:56;12.43;;;2.58;;
58017;SDS011;43810;50.860;19.226;2023-02-01T08:13:23;14.23;;;4.18;;
58017;SDS011;43810;50.860;19.226;2023-02-01T08:15:49;15.38;;;3.80;;
58017;SDS011;43810;50.860;19.226;2023-02-01T08:18:15;13.25;;;3.78;;
58017;SDS011;43810;50.860;19.226;2023-02-01T08:20:43;12.05;;;3.38;;
58017;SDS011;43810;50.860;19.226;2023-02-01T08:23:11;12.60;;;2.83;;
58017;SDS011;43810;50.860;19.226;2023-02-01T08:25:37;13.32;;;4.13;;
58017;SDS011;43810;50.860;19.226;2023-02-01T08:28:05;20.02;;;7.47;;
58017;SDS011;43810;50.860;19.226;2023-02-01T08:30:32;12.27;;;3.50;;
58017;SDS011;43810;50.860;19.226;2023-02-01T08:32:58;11.45;;;3.97;;
58017;SDS011;43810;50.860;19.226;2023-02-01T08:35:23;19.27;;;3.92;;
58017;SDS011;43810;50.860;19.226;2023-02-01T08:37:49;11.18;;;3.38;;
58017;SDS011;43810;50.860;19.226;2023-02-01T08:40:16;13.60;;;4.45;;
58017;SDS011;43810;50.860;19.226;2023-02-01T08:42:43;16.33;;;4.05;;
58017;SDS011;43810;50.860;19.226;2023-02-01T08:45:21;13.32;;;4.68;;
58017;SDS011;43810;50.860;19.226;2023-02-01T08:47:52;15.38;;;4.72;;
58017;SDS011;43810;50.860;19.226;2023-02-01T08:50:18;17.75;;;5.15;;
58017;SDS011;43810;50.860;19.226;2023-02-01T08:52:46;8.23;;;4.20;;
58017;SDS011;43810;50.860;19.226;2023-02-01T08:55:12;9.65;;;3.10;;
58017;SDS011;43810;50.860;19.226;2023-02-01T08:57:39;13.20;;;4.35;;
58017;SDS011;43810;50.860;19.226;2023-02-01T09:00:06;12.77;;;5.03;;
58017;SDS011;43810;50.860;19.226;2023-02-01T09:02:41;15.65;;;4.63;;
58017;SDS011;43810;50.860;19.226;2023-02-01T09:05:07;19.55;;;5.78;;
58017;SDS011;43810;50.860;19.226;2023-02-01T09:07:33;20.17;;;5.72;;
58017;SDS011;43810;50.860;19.226;2023-02-01T09:09:59;21.38;;;6.53;;
58017;SDS011;43810;50.860;19.226;2023-02-01T09:12:27;26.90;;;8.52;;
58017;SDS011;43810;50.860;19.226;2023-02-01T09:14:58;17.00;;;6.63;;
58017;SDS011;43810;50.860;19.226;2023-02-01T09:17:25;16.88;;;7.60;;
58017;SDS011;43810;50.860;19.226;2023-02-01T09:19:52;27.38;;;8.85;;
58017;SDS011;43810;50.860;19.226;2023-02-01T09:22:18;27.02;;;9.40;;
58017;SDS011;43810;50.860;19.226;2023-02-01T09:24:44;23.73;;;8.55;;
58017;SDS011;43810;50.860;19.226;2023-02-01T09:27:10;32.08;;;9.38;;
58017;SDS011;43810;50.860;19.226;2023-02-01T09:29:35;25.52;;;9.23;;
58017;SDS011;43810;50.860;19.226;2023-02-01T09:32:01;27.45;;;9.18;;
58017;SDS011;43810;50.860;19.226;2023-02-01T09:34:27;20.17;;;7.72;;
58017;SDS011;43810;50.860;19.226;2023-02-01T09:36:54;18.90;;;6.78;;
58017;SDS011;43810;50.860;19.226;2023-02-01T09:39:19;13.25;;;4.53;;
58017;SDS011;43810;50.860;19.226;2023-02-01T09:42:08;15.23;;;5.65;;
58017;SDS011;43810;50.860;19.226;2023-02-01T09:47:43;12.80;;;4.75;;
58017;SDS011;43810;50.860;19.226;2023-02-01T09:50:15;14.63;;;5.15;;
58017;SDS011;43810;50.860;19.226;2023-02-01T09:52:48;13.30;;;3.83;;
58017;SDS011;43810;50.860;19.226;2023-02-01T09:58:04;13.90;;;4.35;;
58017;SDS011;43810;50.860;19.226;2023-02-01T10:00:35;14.48;;;4.55;;
58017;SDS011;43810;50.860;19.226;2023-02-01T10:03:05;9.95;;;4.47;;
58017;SDS011;43810;50.860;19.226;2023-02-01T10:17:08;17.02;;;5.47;;
58017;SDS011;43810;50.860;19.226;2023-02-01T10:27:57;12.27;;;3.75;;
58017;SDS011;43810;50.860;19.226;2023-02-01T10:30:59;16.27;;;5.07;;
58017;SDS011;43810;50.860;19.226;2023-02-01T10:36:04;12.73;;;4.00;;
58017;SDS011;43810;50.860;19.226;2023-02-01T10:38:39;12.68;;;3.17;;
58017;SDS011;43810;50.860;19.226;2023-02-01T10:41:20;13.57;;;4.43;;
58017;SDS011;43810;50.860;19.226;2023-02-01T10:46:18;14.15;;;4.93;;
58017;SDS011;43810;50.860;19.226;2023-02-01T10:48:45;8.57;;;3.33;;
58017;SDS011;43810;50.860;19.226;2023-02-01T10:54:03;13.70;;;5.57;;
58017;SDS011;43810;50.860;19.226;2023-02-01T10:56:40;14.35;;;5.00;;
58017;SDS011;43810;50.860;19.226;2023-02-01T10:59:17;8.88;;;3.88;;
58017;SDS011;43810;50.860;19.226;2023-02-01T11:01:46;15.35;;;4.38;;
58017;SDS011;43810;50.860;19.226;2023-02-01T11:04:18;14.27;;;3.30;;
58017;SDS011;43810;50.860;19.226;2023-02-01T11:06:51;9.85;;;3.88;;
58017;SDS011;43810;50.860;19.226;2023-02-01T11:09:19;8.70;;;3.42;;
58017;SDS011;43810;50.860;19.226;2023-02-01T11:14:17;8.05;;;2.95;;
58017;SDS011;43810;50.860;19.226;2023-02-01T11:17:39;12.93;;;3.55;;
58017;SDS011;43810;50.860;19.226;2023-02-01T11:20:04;6.78;;;2.83;;
58017;SDS011;43810;50.860;19.226;2023-02-01T11:22:38;18.83;;;5.20;;
58017;SDS011;43810;50.860;19.226;2023-02-01T11:27:40;9.38;;;3.83;;
58017;SDS011;43810;50.860;19.226;2023-02-01T11:30:06;12.60;;;5.40;;
58017;SDS011;43810;50.860;19.226;2023-02-01T11:32:33;16.65;;;5.00;;
58017;SDS011;43810;50.860;19.226;2023-02-01T11:35:02;10.05;;;3.60;;
58017;SDS011;43810;50.860;19.226;2023-02-01T11:37:41;11.02;;;4.18;;
58017;SDS011;43810;50.860;19.226;2023-02-01T11:42:58;9.85;;;4.72;;
58017;SDS011;43810;50.860;19.226;2023-02-01T11:45:27;10.90;;;5.13;;
58017;SDS011;43810;50.860;19.226;2023-02-01T11:47:55;11.95;;;5.13;;
58017;SDS011;43810;50.860;19.226;2023-02-01T11:53:20;12.98;;;5.20;;
58017;SDS011;43810;50.860;19.226;2023-02-01T12:06:52;11.43;;;5.82;;
58017;SDS011;43810;50.860;19.226;2023-02-01T12:12:17;16.30;;;7.57;;
58017;SDS011;43810;50.860;19.226;2023-02-01T12:15:01;18.35;;;6.53;;
58017;SDS011;43810;50.860;19.226;2023-02-01T12:45:40;18.83;;;8.02;;
58017;SDS011;43810;50.860;19.226;2023-02-01T12:51:07;16.02;;;7.05;;
58017;SDS011;43810;50.860;19.226;2023-02-01T12:56:11;17.05;;;7.47;;
58017;SDS011;43810;50.860;19.226;2023-02-01T12:58:45;15.32;;;7.03;;
58017;SDS011;43810;50.860;19.226;2023-02-01T13:06:29;18.48;;;9.35;;
58017;SDS011;43810;50.860;19.226;2023-02-01T13:12:05;18.88;;;9.07;;
58017;SDS011;43810;50.860;19.226;2023-02-01T13:14:48;12.90;;;7.82;;
58017;SDS011;43810;50.860;19.226;2023-02-01T13:17:23;17.52;;;8.30;;
58017;SDS011;43810;50.860;19.226;2023-02-01T13:19:56;17.23;;;8.10;;
58017;SDS011;43810;50.860;19.226;2023-02-01T13:25:02;15.90;;;8.75;;
58017;SDS011;43810;50.860;19.226;2023-02-01T13:27:36;16.58;;;8.38;;
58017;SDS011;43810;50.860;19.226;2023-02-01T13:30:05;16.75;;;8.20;;
58017;SDS011;43810;50.860;19.226;2023-02-01T13:43:32;17.98;;;8.63;;
58017;SDS011;43810;50.860;19.226;2023-02-01T13:46:05;39.22;;;14.27;;
58017;SDS011;43810;50.860;19.226;2023-02-01T13:51:17;16.08;;;6.40;;
58017;SDS011;43810;50.860;19.226;2023-02-01T13:56:53;14.75;;;8.10;;
58017;SDS011;43810;50.860;19.226;2023-02-01T13:59:48;19.42;;;8.10;;
58017;SDS011;43810;50.860;19.226;2023-02-01T14:05:10;17.58;;;8.65;;
58017;SDS011;43810;50.860;19.226;2023-02-01T14:08:01;19.23;;;9.40;;
58017;SDS011;43810;50.860;19.226;2023-02-01T14:15:38;13.50;;;9.13;;
58017;SDS011;43810;50.860;19.226;2023-02-01T14:21:13;21.27;;;10.52;;
58017;SDS011;43810;50.860;19.226;2023-02-01T14:34:31;23.30;;;11.55;;
58017;SDS011;43810;50.860;19.226;2023-02-01T14:37:09;21.48;;;11.80;;
58017;SDS011;43810;50.860;19.226;2023-02-01T14:39:58;26.67;;;12.25;;
58017;SDS011;43810;50.860;19.226;2023-02-01T14:47:43;29.58;;;15.48;;
58017;SDS011;43810;50.860;19.226;2023-02-01T14:52:39;39.22;;;15.98;;
58017;SDS011;43810;50.860;19.226;2023-02-01T14:55:27;35.90;;;17.27;;
58017;SDS011;43810;50.860;19.226;2023-02-01T14:58:00;35.30;;;16.60;;
58017;SDS011;43810;50.860;19.226;2023-02-01T15:00:33;36.60;;;16.85;;
58017;SDS011;43810;50.860;19.226;2023-02-01T15:05:50;31.77;;;13.27;;
58017;SDS011;43810;50.860;19.226;2023-02-01T15:08:25;21.33;;;9.82;;
58017;SDS011;43810;50.860;19.226;2023-02-01T15:11:06;21.92;;;10.45;;
58017;SDS011;43810;50.860;19.226;2023-02-01T15:13:39;20.15;;;8.38;;
58017;SDS011;43810;50.860;19.226;2023-02-01T15:18:38;16.55;;;7.78;;
58017;SDS011;43810;50.860;19.226;2023-02-01T15:21:06;14.88;;;7.78;;
58017;SDS011;43810;50.860;19.226;2023-02-01T15:23:40;15.10;;;7.30;;
58017;SDS011;43810;50.860;19.226;2023-02-01T15:26:06;14.32;;;7.10;;
58017;SDS011;43810;50.860;19.226;2023-02-01T15:28:31;14.90;;;7.32;;
58017;SDS011;43810;50.860;19.226;2023-02-01T15:30:59;14.30;;;7.97;;
58017;SDS011;43810;50.860;19.226;2023-02-01T15:33:29;14.68;;;7.13;;
58017;SDS011;43810;50.860;19.226;2023-02-01T15:38:32;24.02;;;10.63;;
58017;SDS011;43810;50.860;19.226;2023-02-01T15:43:29;23.58;;;10.63;;
58017;SDS011;43810;50.860;19.226;2023-02-01T15:45:58;23.23;;;8.95;;
58017;SDS011;43810;50.860;19.226;2023-02-01T15:51:02;16.70;;;7.72;;
58017;SDS011;43810;50.860;19.226;2023-02-01T15:53:29;17.02;;;8.40;;
58017;SDS011;43810;50.860;19.226;2023-02-01T15:56:00;19.73;;;9.40;;
58017;SDS011;43810;50.860;19.226;2023-02-01T15:58:29;20.52;;;10.63;;
58017;SDS011;43810;50.860;19.226;2023-02-01T16:01:03;46.05;;;17.67;;
58017;SDS011;43810;50.860;19.226;2023-02-01T16:03:33;43.30;;;14.60;;
58017;SDS011;43810;50.860;19.226;2023-02-01T16:06:02;28.52;;;11.75;;
58017;SDS011;43810;50.860;19.226;2023-02-01T16:08:33;20.77;;;9.52;;
58017;SDS011;43810;50.860;19.226;2023-02-01T16:13:34;23.92;;;9.40;;
58017;SDS011;43810;50.860;19.226;2023-02-01T16:16:00;21.48;;;10.77;;
58017;SDS011;43810;50.860;19.226;2023-02-01T16:18:27;19.83;;;9.25;;
58017;SDS011;43810;50.860;19.226;2023-02-01T16:20:53;21.02;;;9.20;;
58017;SDS011;43810;50.860;19.226;2023-02-01T16:23:19;21.83;;;8.90;;
58017;SDS011;43810;50.860;19.226;2023-02-01T16:25:46;25.17;;;11.15;;
58017;SDS011;43810;50.860;19.226;2023-02-01T16:28:12;24.30;;;11.18;;
58017;SDS011;43810;50.860;19.226;2023-02-01T16:30:38;24.65;;;10.40;;
58017;SDS011;43810;50.860;19.226;2023-02-01T16:33:04;19.25;;;10.50;;
58017;SDS011;43810;50.860;19.226;2023-02-01T16:35:35;21.40;;;9.88;;
58017;SDS011;43810;50.860;19.226;2023-02-01T16:38:07;25.00;;;10.88;;
58017;SDS011;43810;50.860;19.226;2023-02-01T16:40:38;17.48;;;9.32;;
58017;SDS011;43810;50.860;19.226;2023-02-01T16:43:12;16.15;;;8.45;;
58017;SDS011;43810;50.860;19.226;2023-02-01T16:45:43;14.93;;;6.35;;
58017;SDS011;43810;50.860;19.226;2023-02-01T16:48:29;22.70;;;8.63;;
58017;SDS011;43810;50.860;19.226;2023-02-01T16:51:08;14.55;;;7.50;;
58017;SDS011;43810;50.860;19.226;2023-02-01T16:53:35;21.02;;;8.82;;
58017;SDS011;43810;50.860;19.226;2023-02-01T16:56:04;18.90;;;9.27;;
58017;SDS011;43810;50.860;19.226;2023-02-01T16:58:37;21.77;;;8.68;;
58017;SDS011;43810;50.860;19.226;2023-02-01T17:01:06;18.75;;;8.45;;
58017;SDS011;43810;50.860;19.226;2023-02-01T17:03:34;12.15;;;7.38;;
58017;SDS011;43810;50.860;19.226;2023-02-01T17:06:00;19.90;;;8.35;;
58017;SDS011;43810;50.860;19.226;2023-02-01T17:08:31;18.80;;;9.68;;
58017;SDS011;43810;50.860;19.226;2023-02-01T17:10:59;16.80;;;8.73;;
58017;SDS011;43810;50.860;19.226;2023-02-01T17:13:25;21.90;;;9.38;;
58017;SDS011;43810;50.860;19.226;2023-02-01T17:16:36;16.77;;;7.22;;
58017;SDS011;43810;50.860;19.226;2023-02-01T17:18:43;17.65;;;7.30;;
58017;SDS011;43810;50.860;19.226;2023-02-01T17:21:12;17.50;;;7.55;;
58017;SDS011;43810;50.860;19.226;2023-02-01T17:23:38;16.17;;;7.05;;
58017;SDS011;43810;50.860;19.226;2023-02-01T17:26:04;19.13;;;6.95;;
58017;SDS011;43810;50.860;19.226;2023-02-01T17:28:29;20.13;;;7.63;;
58017;SDS011;43810;50.860;19.226;2023-02-01T17:30:55;14.77;;;7.15;;
58017;SDS011;43810;50.860;19.226;2023-02-01T17:33:26;20.15;;;6.95;;
58017;SDS011;43810;50.860;19.226;2023-02-01T17:35:55;14.68;;;7.13;;
58017;SDS011;43810;50.860;19.226;2023-02-01T17:38:22;15.63;;;7.25;;
58017;SDS011;43810;50.860;19.226;2023-02-01T17:40:49;18.58;;;8.43;;
58017;SDS011;43810;50.860;19.226;2023-02-01T17:43:20;17.55;;;7.18;;
58017;SDS011;43810;50.860;19.226;2023-02-01T17:45:51;12.55;;;7.30;;
58017;SDS011;43810;50.860;19.226;2023-02-01T17:48:28;12.70;;;6.65;;
58017;SDS011;43810;50.860;19.226;2023-02-01T17:50:54;16.85;;;7.50;;
58017;SDS011;43810;50.860;19.226;2023-02-01T17:53:23;16.48;;;7.63;;
58017;SDS011;43810;50.860;19.226;2023-02-01T17:55:50;12.68;;;7.00;;
58017;SDS011;43810;50.860;19.226;2023-02-01T17:58:17;13.32;;;7.97;;